createdAt,value
2023-01-17T00:00:55.478Z,2.93
2023-01-17T00:04:16.466Z,2.94
2023-01-17T00:07:35.445Z,2.95
2023-01-17T00:10:37.493Z,2.97
2023-01-17T00:13:37.450Z,2.97
2023-01-17T00:16:38.489Z,2.97
2023-01-17T00:20:00.486Z,2.98
2023-01-17T00:23:25.719Z,2.95
2023-01-17T00:26:31.418Z,2.96
2023-01-17T00:29:31.442Z,2.98
2023-01-17T00:32:32.442Z,3.00
2023-01-17T00:35:32.470Z,3.01
2023-01-17T00:38:34.420Z,3.03
2023-01-17T00:41:36.042Z,3.05
2023-01-17T00:44:54.471Z,3.07
2023-01-17T00:48:17.468Z,3.09
2023-01-17T00:51:37.654Z,3.11
2023-01-17T00:54:57.470Z,3.12
2023-01-17T00:58:17.849Z,3.13
2023-01-17T01:01:42.808Z,3.15
2023-01-17T01:05:03.521Z,3.17
2023-01-17T01:08:22.522Z,3.19
2023-01-17T01:11:45.527Z,3.17
2023-01-17T01:15:10.485Z,3.15
2023-01-17T01:18:36.509Z,3.16
2023-01-17T01:21:55.563Z,3.16
2023-01-17T01:25:14.877Z,3.13
2023-01-17T01:28:37.875Z,3.13
2023-01-17T01:31:57.237Z,3.14
2023-01-17T01:34:59.673Z,3.15
2023-01-17T01:37:59.519Z,3.13
2023-01-17T01:41:01.618Z,3.11
2023-01-17T01:44:03.624Z,3.12
2023-01-17T01:47:03.571Z,3.13
2023-01-17T01:50:04.604Z,3.15
2023-01-17T01:53:11.832Z,3.15
2023-01-17T01:56:11.583Z,3.15
2023-01-17T01:59:12.575Z,3.14
2023-01-17T02:02:13.620Z,3.14
2023-01-17T02:05:14.954Z,3.14
2023-01-17T02:08:21.579Z,3.14
2023-01-17T02:11:23.645Z,3.17
2023-01-17T02:14:36.145Z,3.16
2023-01-17T02:17:49.570Z,3.17
2023-01-17T02:20:56.631Z,3.15
2023-01-17T02:24:21.605Z,3.15
2023-01-17T02:28:01.606Z,3.15
2023-01-17T02:31:09.596Z,3.16
2023-01-17T02:34:32.628Z,3.16
2023-01-17T02:37:34.728Z,3.16
2023-01-17T02:41:25.747Z,3.14
2023-01-17T02:44:31.771Z,3.12
2023-01-17T02:47:39.638Z,3.09
2023-01-17T02:51:10.778Z,3.07
2023-01-17T02:54:19.661Z,3.04
2023-01-17T02:57:54.691Z,3.01
2023-01-17T03:01:06.652Z,3.01
2023-01-17T03:04:10.708Z,3.01
2023-01-17T03:07:15.682Z,3.00
2023-01-17T03:10:15.677Z,3.03
2023-01-17T03:13:16.678Z,3.05
2023-01-17T03:16:19.827Z,3.05
2023-01-17T03:19:20.748Z,3.04
2023-01-17T03:22:21.731Z,3.06
2023-01-17T03:25:21.728Z,3.05
2023-01-17T03:28:23.735Z,3.04
2023-01-17T03:31:28.831Z,3.06
2023-01-17T03:34:28.688Z,3.08
2023-01-17T03:37:30.854Z,3.10
2023-01-17T03:40:30.762Z,3.11
2023-01-17T03:43:31.696Z,3.10
2023-01-17T03:46:38.771Z,3.11
2023-01-17T03:49:41.791Z,3.08
2023-01-17T03:52:41.781Z,3.11
2023-01-17T03:55:42.752Z,3.10
2023-01-17T03:58:42.871Z,3.10
2023-01-17T04:01:43.872Z,3.12
2023-01-17T04:04:46.827Z,3.14
2023-01-17T04:07:46.784Z,3.15
2023-01-17T04:10:46.784Z,3.16
2023-01-17T04:13:46.781Z,3.15
2023-01-17T04:16:46.847Z,3.17
2023-01-17T04:19:48.847Z,3.19
2023-01-17T04:22:50.853Z,3.23
2023-01-17T04:25:52.791Z,3.25
2023-01-17T04:28:56.786Z,3.26
2023-01-17T04:31:56.909Z,3.28
2023-01-17T04:35:00.158Z,3.29
2023-01-17T04:38:00.852Z,3.29
2023-01-17T04:41:00.827Z,3.29
2023-01-17T04:44:01.862Z,3.29
2023-01-17T04:47:02.877Z,3.28
2023-01-17T04:50:06.875Z,3.29
2023-01-17T04:53:08.867Z,3.29
2023-01-17T04:56:08.854Z,3.29
2023-01-17T04:59:11.011Z,3.31
2023-01-17T05:02:11.844Z,3.34
2023-01-17T05:05:16.859Z,3.36
2023-01-17T05:08:16.912Z,3.37
2023-01-17T05:11:16.990Z,3.40
2023-01-17T05:14:16.914Z,3.41
2023-01-17T05:17:18.045Z,3.42
2023-01-17T05:20:20.905Z,3.45
2023-01-17T05:23:22.897Z,3.48
2023-01-17T05:26:25.915Z,3.49
2023-01-17T05:29:27.935Z,3.49
2023-01-17T05:32:43.262Z,3.51
2023-01-17T05:35:44.931Z,3.53
2023-01-17T05:38:48.010Z,3.55
2023-01-17T05:41:47.911Z,3.54
2023-01-17T05:44:48.919Z,3.55
2023-01-17T05:47:49.950Z,3.57
2023-01-17T05:50:52.007Z,3.57
2023-01-17T05:53:53.977Z,3.58
2023-01-17T05:56:55.083Z,3.57
2023-01-17T05:59:54.999Z,3.56
2023-01-17T06:02:56.148Z,3.55
2023-01-17T06:05:56.104Z,3.56
2023-01-17T06:08:58.010Z,3.55
2023-01-17T06:11:58.507Z,3.56
2023-01-17T06:15:00.037Z,3.57
2023-01-17T06:18:00.007Z,3.60
2023-01-17T06:21:05.049Z,3.62
2023-01-17T06:24:08.019Z,3.62
2023-01-17T06:27:09.014Z,3.64
2023-01-17T06:30:11.061Z,3.65
2023-01-17T06:33:11.050Z,3.65
2023-01-17T06:36:11.023Z,3.66
2023-01-17T06:39:14.845Z,3.67
2023-01-17T06:42:15.019Z,3.66
2023-01-17T06:45:15.068Z,3.69
2023-01-17T06:48:16.391Z,3.70
2023-01-17T06:51:16.240Z,3.73
2023-01-17T06:54:16.058Z,3.73
2023-01-17T06:57:16.122Z,3.74
2023-01-17T07:00:17.128Z,3.74
2023-01-17T07:03:28.202Z,3.76
2023-01-17T07:06:28.219Z,3.78
2023-01-17T07:09:32.064Z,3.80
2023-01-17T07:12:34.236Z,3.81
2023-01-17T07:15:35.153Z,3.80
2023-01-17T07:18:36.148Z,3.80
2023-01-17T07:21:37.122Z,3.79
2023-01-17T07:24:37.158Z,3.78
2023-01-17T07:27:39.247Z,3.78
2023-01-17T07:30:50.102Z,3.79
2023-01-17T07:33:50.109Z,3.79
2023-01-17T07:36:54.132Z,3.80
2023-01-17T07:39:54.151Z,3.81
2023-01-17T07:42:54.131Z,3.83
2023-01-17T07:45:58.140Z,3.81
2023-01-17T07:48:58.348Z,3.83
2023-01-17T07:52:01.183Z,3.84
2023-01-17T07:55:01.233Z,3.86
2023-01-17T07:58:05.174Z,3.88
2023-01-17T08:01:07.764Z,3.91
2023-01-17T08:04:29.267Z,3.96
2023-01-17T08:07:30.241Z,3.98
2023-01-17T08:10:34.165Z,3.99
2023-01-17T08:13:36.451Z,3.99
2023-01-17T08:16:37.237Z,3.99
2023-01-17T08:19:38.219Z,3.98
2023-01-17T08:22:38.231Z,3.99
2023-01-17T08:25:41.356Z,4.00
2023-01-17T08:28:41.219Z,3.99
2023-01-17T08:31:44.479Z,4.00
2023-01-17T08:34:46.234Z,4.01
2023-01-17T08:37:47.384Z,4.02
2023-01-17T08:40:47.266Z,4.03
2023-01-17T08:43:47.429Z,4.04
2023-01-17T08:46:47.284Z,4.03
2023-01-17T08:49:47.287Z,4.06
2023-01-17T08:52:47.235Z,4.09
2023-01-17T08:55:47.367Z,4.10
2023-01-17T08:58:48.811Z,4.12
2023-01-17T09:01:52.409Z,4.12
2023-01-17T09:05:03.338Z,4.10
2023-01-17T09:08:03.278Z,4.10
2023-01-17T09:11:03.710Z,4.12
2023-01-17T09:14:06.522Z,4.14
2023-01-17T09:17:08.357Z,4.15
2023-01-17T09:20:08.420Z,4.16
2023-01-17T09:23:08.356Z,4.16
2023-01-17T09:26:08.406Z,4.17
2023-01-17T09:29:08.450Z,4.18
2023-01-17T09:32:08.419Z,4.20
2023-01-17T09:35:09.298Z,4.22
2023-01-17T09:38:11.366Z,4.23
2023-01-17T09:41:11.304Z,4.24
2023-01-17T09:44:33.375Z,4.25
2023-01-17T09:47:55.366Z,4.28
2023-01-17T09:50:57.364Z,4.31
2023-01-17T09:53:58.380Z,4.36
2023-01-17T09:57:00.355Z,4.39
2023-01-17T10:00:12.326Z,4.40
2023-01-17T10:03:32.526Z,4.43
2023-01-17T10:06:37.496Z,4.41
2023-01-17T10:10:05.711Z,4.41
2023-01-17T10:13:11.380Z,4.43
2023-01-17T10:16:23.410Z,4.44
2023-01-17T10:19:39.435Z,4.45
2023-01-17T10:23:04.373Z,4.48
2023-01-17T10:26:04.372Z,4.50
2023-01-17T10:29:07.401Z,4.49
2023-01-17T10:32:18.627Z,4.47
2023-01-17T10:35:28.553Z,4.45
2023-01-17T10:38:28.508Z,4.44
2023-01-17T10:41:37.455Z,4.45
2023-01-17T10:44:46.571Z,4.46
2023-01-17T10:47:49.663Z,4.49
2023-01-17T10:51:16.512Z,4.51
2023-01-17T10:54:38.456Z,4.51
2023-01-17T10:57:39.483Z,4.48
2023-01-17T11:01:02.564Z,4.46
2023-01-17T15:16:18.883Z,4.37
2023-01-17T15:19:26.894Z,4.46
2023-01-17T15:22:27.873Z,4.47
2023-01-17T15:25:28.848Z,4.49
2023-01-17T15:28:29.872Z,4.51
2023-01-17T15:31:32.896Z,4.51
2023-01-17T15:34:53.922Z,4.55
2023-01-17T15:37:54.926Z,4.59
2023-01-17T15:40:55.895Z,4.62
2023-01-17T15:43:57.951Z,4.66
2023-01-17T15:46:58.938Z,4.70
2023-01-17T15:50:04.057Z,4.74
2023-01-17T15:53:09.925Z,4.79
2023-01-17T15:56:10.917Z,4.82
2023-01-17T15:59:41.999Z,4.84
2023-01-17T16:02:57.083Z,4.88
2023-01-17T16:05:58.959Z,4.90
2023-01-17T16:09:06.019Z,4.94
2023-01-17T16:12:06.974Z,4.98
2023-01-17T16:15:12.738Z,5.02
2023-01-17T16:18:26.036Z,5.06
2023-01-17T16:21:30.040Z,5.10
2023-01-17T16:24:24.099Z,5.12
2023-01-17T16:27:24.955Z,5.12
2023-01-17T16:30:31.060Z,5.14
2023-01-17T16:33:32.200Z,5.16
2023-01-17T16:36:27.009Z,5.20
2023-01-17T16:39:14.140Z,5.24
2023-01-17T16:42:15.012Z,5.25
2023-01-17T16:45:20.156Z,5.27
2023-01-17T16:48:22.135Z,5.29
2023-01-17T16:51:29.026Z,5.31
2023-01-17T16:54:30.043Z,5.31
2023-01-17T16:57:31.015Z,5.32
2023-01-17T17:00:26.968Z,5.32
2023-01-17T17:03:32.048Z,5.31
2023-01-17T17:06:33.101Z,5.33
2023-01-17T17:09:36.432Z,5.31
2023-01-17T17:12:33.199Z,5.27
2023-01-17T17:15:36.100Z,5.26
2023-01-17T17:18:37.287Z,5.25
2023-01-17T17:21:39.377Z,5.22
2023-01-17T17:24:41.095Z,5.17
2023-01-17T17:27:43.076Z,5.11
2023-01-17T17:30:44.246Z,5.07
2023-01-17T17:33:45.313Z,5.06
2023-01-17T17:36:46.111Z,5.03
2023-01-17T17:39:47.097Z,5.03
2023-01-17T17:42:48.113Z,5.04
2023-01-17T17:45:49.105Z,5.04
2023-01-17T17:48:50.118Z,5.01
2023-01-17T17:51:52.138Z,5.00
2023-01-17T17:54:53.118Z,4.97
2023-01-17T17:57:54.434Z,4.97
2023-01-17T18:00:55.175Z,4.93
2023-01-17T18:03:56.141Z,4.93
2023-01-17T18:06:57.178Z,4.92
2023-01-17T18:09:58.172Z,4.92
2023-01-17T18:12:59.160Z,4.92
2023-01-17T18:16:00.204Z,4.95
2023-01-17T18:19:02.184Z,4.98
2023-01-17T18:22:03.160Z,5.01
2023-01-17T18:25:04.179Z,5.06
2023-01-17T18:28:05.174Z,5.12
2023-01-17T18:31:06.188Z,5.18
2023-01-17T18:34:13.779Z,5.28
2023-01-17T18:37:14.197Z,5.36
2023-01-17T18:40:16.202Z,5.42
2023-01-17T18:43:17.453Z,5.50
2023-01-17T18:46:19.192Z,5.56
2023-01-17T18:49:17.237Z,5.65
2023-01-17T18:52:07.237Z,5.76
2023-01-17T18:55:09.459Z,5.85
2023-01-17T18:58:10.256Z,5.94
2023-01-17T19:01:25.306Z,6.00
2023-01-17T19:04:29.416Z,6.07
2023-01-17T19:07:36.619Z,6.12
2023-01-17T19:10:40.281Z,6.19
2023-01-17T19:13:41.233Z,6.24
2023-01-17T19:16:46.701Z,6.29
2023-01-17T19:19:50.403Z,6.34
2023-01-17T19:22:51.323Z,6.37
2023-01-17T19:25:52.306Z,6.39
2023-01-17T19:28:54.304Z,6.42
2023-01-17T19:31:56.314Z,6.45
2023-01-17T19:34:57.293Z,6.46
2023-01-17T19:38:02.358Z,6.49
2023-01-17T19:41:04.523Z,6.52
2023-01-17T19:44:15.318Z,6.55
2023-01-17T19:47:17.280Z,6.59
2023-01-17T19:50:18.332Z,6.62
2023-01-17T19:53:19.317Z,6.63
2023-01-17T19:56:27.322Z,6.64
2023-01-17T19:59:29.340Z,6.62
2023-01-17T20:02:30.380Z,6.62
2023-01-17T20:05:31.346Z,6.63
2023-01-17T20:08:32.341Z,6.63
2023-01-17T20:11:34.335Z,6.60
2023-01-17T20:14:35.346Z,6.59
2023-01-17T20:17:36.356Z,6.58
2023-01-17T20:20:55.817Z,6.58
2023-01-17T20:23:57.368Z,6.55
2023-01-17T20:26:58.385Z,6.54
2023-01-17T20:30:10.922Z,6.54
2023-01-17T20:33:21.392Z,6.52
2023-01-17T20:36:25.586Z,6.53
2023-01-17T20:39:27.453Z,6.53
2023-01-17T20:42:28.422Z,6.54
2023-01-17T20:45:29.495Z,6.56
2023-01-17T20:48:30.426Z,6.54
2023-01-17T20:51:31.419Z,6.53
2023-01-17T20:54:34.406Z,6.51
2023-01-17T20:57:35.454Z,6.48
2023-01-17T21:00:36.414Z,6.46
2023-01-17T21:03:41.500Z,6.46
2023-01-17T21:06:43.422Z,6.44
2023-01-17T21:09:44.465Z,6.45
2023-01-17T21:12:46.783Z,6.45
2023-01-17T21:15:51.590Z,6.47
2023-01-17T21:18:55.452Z,6.47
2023-01-17T21:21:57.484Z,6.44
2023-01-17T21:25:00.631Z,6.41
2023-01-17T21:28:05.801Z,6.38
2023-01-17T21:31:06.655Z,6.36
2023-01-17T21:34:10.613Z,6.34
2023-01-17T21:37:11.483Z,6.32
2023-01-17T21:40:12.471Z,6.29
2023-01-17T21:43:13.515Z,6.26
2023-01-17T21:46:17.507Z,6.25
2023-01-17T21:49:20.946Z,6.22
2023-01-17T21:52:25.657Z,6.20
2023-01-17T21:55:44.507Z,6.18
2023-01-17T21:58:50.512Z,6.18
